sensor_id;sensor_type;location;lat;lon;timestamp;P1;P2;P0
56688;PMS5003;42565;53.342;-1.534;2024-01-30T00:01:08;39;37;
56688;PMS5003;42565;53.342;-1.534;2024-01-30T00:03:35;34;31;
56688;PMS5003;42565;53.342;-1.534;2024-01-30T00:06:02;35;34;
56688;PMS5003;42565;53.342;-1.534;2024-01-30T00:08:29;34;32;
56688;PMS5003;42565;53.342;-1.534;2024-01-30T00:10:57;39;36;
56688;PMS5003;42565;53.342;-1.534;2024-01-30T00:13:24;39;35;
56688;PMS5003;42565;53.342;-1.534;2024-01-30T00:15:51;39;36;
56688;PMS5003;42565;53.342;-1.534;2024-01-30T00:18:19;37;34;
56688;PMS5003;42565;53.342;-1.534;2024-01-30T00:20:46;36;33;
56688;PMS5003;42565;53.342;-1.534;2024-01-30T00:23:13;43;40;
56688;PMS5003;42565;53.342;-1.534;2024-01-30T00:25:40;40;37;
56688;PMS5003;42565;53.342;-1.534;2024-01-30T00:28:07;41;39;
56688;PMS5003;42565;53.342;-1.534;2024-01-30T00:30:34;38;35;
56688;PMS5003;42565;53.342;-1.534;2024-01-30T00:33:01;39;39;
56688;PMS5003;42565;53.342;-1.534;2024-01-30T00:35:29;39;37;
56688;PMS5003;42565;53.342;-1.534;2024-01-30T00:37:56;34;33;
56688;PMS5003;42565;53.342;-1.534;2024-01-30T00:40:23;41;39;
56688;PMS5003;42565;53.342;-1.534;2024-01-30T00:42:51;38;36;
56688;PMS5003;42565;53.342;-1.534;2024-01-30T00:45:18;35;34;
56688;PMS5003;42565;53.342;-1.534;2024-01-30T00:47:45;45;39;
56688;PMS5003;42565;53.342;-1.534;2024-01-30T00:50:12;35;34;
56688;PMS5003;42565;53.342;-1.534;2024-01-30T00:52:39;35;31;
56688;PMS5003;42565;53.342;-1.534;2024-01-30T00:55:06;38;34;
56688;PMS5003;42565;53.342;-1.534;2024-01-30T00:57:34;44;37;
56688;PMS5003;42565;53.342;-1.534;2024-01-30T01:00:01;33;31;
56688;PMS5003;42565;53.342;-1.534;2024-01-30T01:02:29;37;33;
56688;PMS5003;42565;53.342;-1.534;2024-01-30T01:04:56;37;34;
56688;PMS5003;42565;53.342;-1.534;2024-01-30T01:07:23;41;38;
56688;PMS5003;42565;53.342;-1.534;2024-01-30T01:09:51;37;33;
56688;PMS5003;42565;53.342;-1.534;2024-01-30T01:12:18;38;33;
56688;PMS5003;42565;53.342;-1.534;2024-01-30T01:14:45;32;31;
56688;PMS5003;42565;53.342;-1.534;2024-01-30T01:17:12;34;33;
56688;PMS5003;42565;53.342;-1.534;2024-01-30T01:19:39;38;32;
56688;PMS5003;42565;53.342;-1.534;2024-01-30T01:22:06;33;33;
56688;PMS5003;42565;53.342;-1.534;2024-01-30T01:24:33;34;32;
56688;PMS5003;42565;53.342;-1.534;2024-01-30T01:27:01;41;36;
56688;PMS5003;42565;53.342;-1.534;2024-01-30T01:29:28;31;28;
56688;PMS5003;42565;53.342;-1.534;2024-01-30T01:31:55;35;32;
56688;PMS5003;42565;53.342;-1.534;2024-01-30T01:34:23;38;35;
56688;PMS5003;42565;53.342;-1.534;2024-01-30T01:36:51;33;29;
56688;PMS5003;42565;53.342;-1.534;2024-01-30T01:39:18;31;30;
56688;PMS5003;42565;53.342;-1.534;2024-01-30T01:41:45;32;32;
56688;PMS5003;42565;53.342;-1.534;2024-01-30T01:44:11;33;29;
56688;PMS5003;42565;53.342;-1.534;2024-01-30T01:46:38;30;28;
56688;PMS5003;42565;53.342;-1.534;2024-01-30T01:49:05;28;25;
56688;PMS5003;42565;53.342;-1.534;2024-01-30T01:51:33;32;31;
56688;PMS5003;42565;53.342;-1.534;2024-01-30T01:54:03;31;27;
56688;PMS5003;42565;53.342;-1.534;2024-01-30T01:56:31;27;26;
56688;PMS5003;42565;53.342;-1.534;2024-01-30T01:59:00;25;24;
56688;PMS5003;42565;53.342;-1.534;2024-01-30T02:01:33;30;27;
56688;PMS5003;42565;53.342;-1.534;2024-01-30T02:04:02;27;25;
56688;PMS5003;42565;53.342;-1.534;2024-01-30T02:06:30;24;24;
56688;PMS5003;42565;53.342;-1.534;2024-01-30T02:08:58;24;22;
56688;PMS5003;42565;53.342;-1.534;2024-01-30T02:11:26;23;23;
56688;PMS5003;42565;53.342;-1.534;2024-01-30T02:13:55;24;24;
56688;PMS5003;42565;53.342;-1.534;2024-01-30T02:16:21;24;21;
56688;PMS5003;42565;53.342;-1.534;2024-01-30T02:18:48;20;19;
56688;PMS5003;42565;53.342;-1.534;2024-01-30T02:21:15;14;14;
56688;PMS5003;42565;53.342;-1.534;2024-01-30T02:23:43;15;15;
56688;PMS5003;42565;53.342;-1.534;2024-01-30T02:26:12;11;11;
56688;PMS5003;42565;53.342;-1.534;2024-01-30T02:28:40;9;8;
56688;PMS5003;42565;53.342;-1.534;2024-01-30T02:31:07;8;8;
56688;PMS5003;42565;53.342;-1.534;2024-01-30T02:33:35;6;6;
56688;PMS5003;42565;53.342;-1.534;2024-01-30T02:36:02;7;7;
56688;PMS5003;42565;53.342;-1.534;2024-01-30T02:38:30;6;6;
56688;PMS5003;42565;53.342;-1.534;2024-01-30T02:40:57;4;4;
56688;PMS5003;42565;53.342;-1.534;2024-01-30T02:43:24;5;5;
56688;PMS5003;42565;53.342;-1.534;2024-01-30T02:45:52;4;4;
56688;PMS5003;42565;53.342;-1.534;2024-01-30T02:48:18;5;5;
56688;PMS5003;42565;53.342;-1.534;2024-01-30T02:50:45;6;6;
56688;PMS5003;42565;53.342;-1.534;2024-01-30T02:53:13;4;4;
56688;PMS5003;42565;53.342;-1.534;2024-01-30T02:55:40;4;4;
56688;PMS5003;42565;53.342;-1.534;2024-01-30T02:58:07;5;5;
56688;PMS5003;42565;53.342;-1.534;2024-01-30T03:00:34;4;4;
56688;PMS5003;42565;53.342;-1.534;2024-01-30T03:03:02;5;5;
56688;PMS5003;42565;53.342;-1.534;2024-01-30T03:05:29;4;4;
56688;PMS5003;42565;53.342;-1.534;2024-01-30T03:07:56;3;3;
56688;PMS5003;42565;53.342;-1.534;2024-01-30T03:10:23;4;4;
56688;PMS5003;42565;53.342;-1.534;2024-01-30T03:12:50;3;3;
56688;PMS5003;42565;53.342;-1.534;2024-01-30T03:15:17;3;3;
56688;PMS5003;42565;53.342;-1.534;2024-01-30T03:17:44;3;3;
56688;PMS5003;42565;53.342;-1.534;2024-01-30T03:20:11;3;3;
56688;PMS5003;42565;53.342;-1.534;2024-01-30T03:22:38;2;2;
56688;PMS5003;42565;53.342;-1.534;2024-01-30T03:25:05;2;2;
56688;PMS5003;42565;53.342;-1.534;2024-01-30T03:27:32;2;2;
56688;PMS5003;42565;53.342;-1.534;2024-01-30T03:29:59;1;1;
56688;PMS5003;42565;53.342;-1.534;2024-01-30T03:32:26;2;2;
56688;PMS5003;42565;53.342;-1.534;2024-01-30T03:34:52;1;1;
56688;PMS5003;42565;53.342;-1.534;2024-01-30T03:37:20;1;1;
56688;PMS5003;42565;53.342;-1.534;2024-01-30T03:39:47;1;1;
56688;PMS5003;42565;53.342;-1.534;2024-01-30T03:42:14;1;1;
56688;PMS5003;42565;53.342;-1.534;2024-01-30T03:44:41;1;1;
56688;PMS5003;42565;53.342;-1.534;2024-01-30T03:47:08;1;1;
56688;PMS5003;42565;53.342;-1.534;2024-01-30T03:49:35;2;1;
56688;PMS5003;42565;53.342;-1.534;2024-01-30T03:52:03;1;1;
56688;PMS5003;42565;53.342;-1.534;2024-01-30T03:54:30;0;0;
56688;PMS5003;42565;53.342;-1.534;2024-01-30T03:56:58;1;1;
56688;PMS5003;42565;53.342;-1.534;2024-01-30T03:59:25;1;1;
56688;PMS5003;42565;53.342;-1.534;2024-01-30T04:01:53;1;1;
56688;PMS5003;42565;53.342;-1.534;2024-01-30T04:04:21;1;1;
56688;PMS5003;42565;53.342;-1.534;2024-01-30T04:06:48;1;1;
56688;PMS5003;42565;53.342;-1.534;2024-01-30T04:09:15;1;1;
56688;PMS5003;42565;53.342;-1.534;2024-01-30T04:11:42;1;1;
56688;PMS5003;42565;53.342;-1.534;2024-01-30T04:14:09;1;1;
56688;PMS5003;42565;53.342;-1.534;2024-01-30T04:16:35;1;1;
56688;PMS5003;42565;53.342;-1.534;2024-01-30T04:19:02;0;0;
56688;PMS5003;42565;53.342;-1.534;2024-01-30T04:21:30;0;0;
56688;PMS5003;42565;53.342;-1.534;2024-01-30T04:23:56;1;1;
56688;PMS5003;42565;53.342;-1.534;2024-01-30T04:26:24;1;1;
56688;PMS5003;42565;53.342;-1.534;2024-01-30T04:28:51;0;0;
56688;PMS5003;42565;53.342;-1.534;2024-01-30T04:31:19;0;0;
56688;PMS5003;42565;53.342;-1.534;2024-01-30T04:33:46;0;0;
56688;PMS5003;42565;53.342;-1.534;2024-01-30T04:36:13;1;0;
56688;PMS5003;42565;53.342;-1.534;2024-01-30T04:38:41;0;0;
56688;PMS5003;42565;53.342;-1.534;2024-01-30T04:41:07;0;0;
56688;PMS5003;42565;53.342;-1.534;2024-01-30T04:43:34;0;0;
56688;PMS5003;42565;53.342;-1.534;2024-01-30T04:46:02;0;0;
56688;PMS5003;42565;53.342;-1.534;2024-01-30T04:48:30;1;1;
56688;PMS5003;42565;53.342;-1.534;2024-01-30T04:50:57;1;1;
56688;PMS5003;42565;53.342;-1.534;2024-01-30T04:53:24;1;1;
56688;PMS5003;42565;53.342;-1.534;2024-01-30T04:55:51;1;1;
56688;PMS5003;42565;53.342;-1.534;2024-01-30T04:58:18;0;0;
56688;PMS5003;42565;53.342;-1.534;2024-01-30T05:00:44;1;1;
56688;PMS5003;42565;53.342;-1.534;2024-01-30T05:03:12;0;0;
56688;PMS5003;42565;53.342;-1.534;2024-01-30T05:05:39;1;1;
56688;PMS5003;42565;53.342;-1.534;2024-01-30T05:08:06;1;1;
56688;PMS5003;42565;53.342;-1.534;2024-01-30T05:10:33;1;1;
56688;PMS5003;42565;53.342;-1.534;2024-01-30T05:12:59;1;1;
56688;PMS5003;42565;53.342;-1.534;2024-01-30T05:15:27;1;1;
56688;PMS5003;42565;53.342;-1.534;2024-01-30T05:17:54;1;1;
56688;PMS5003;42565;53.342;-1.534;2024-01-30T05:20:20;1;1;
56688;PMS5003;42565;53.342;-1.534;2024-01-30T05:22:47;1;1;
56688;PMS5003;42565;53.342;-1.534;2024-01-30T05:25:14;1;1;
56688;PMS5003;42565;53.342;-1.534;2024-01-30T05:27:40;1;1;
56688;PMS5003;42565;53.342;-1.534;2024-01-30T05:30:07;1;1;
56688;PMS5003;42565;53.342;-1.534;2024-01-30T05:32:35;1;1;
56688;PMS5003;42565;53.342;-1.534;2024-01-30T05:35:02;1;1;
56688;PMS5003;42565;53.342;-1.534;2024-01-30T05:37:30;2;1;
56688;PMS5003;42565;53.342;-1.534;2024-01-30T05:39:57;2;2;
56688;PMS5003;42565;53.342;-1.534;2024-01-30T05:42:24;3;3;
56688;PMS5003;42565;53.342;-1.534;2024-01-30T05:44:52;4;4;
56688;PMS5003;42565;53.342;-1.534;2024-01-30T05:47:18;3;3;
56688;PMS5003;42565;53.342;-1.534;2024-01-30T05:49:45;3;3;
56688;PMS5003;42565;53.342;-1.534;2024-01-30T05:52:12;3;2;
56688;PMS5003;42565;53.342;-1.534;2024-01-30T05:54:38;2;2;
56688;PMS5003;42565;53.342;-1.534;2024-01-30T05:57:05;3;3;
56688;PMS5003;42565;53.342;-1.534;2024-01-30T05:59:33;2;2;
56688;PMS5003;42565;53.342;-1.534;2024-01-30T06:01:59;1;1;
56688;PMS5003;42565;53.342;-1.534;2024-01-30T06:04:27;1;1;
56688;PMS5003;42565;53.342;-1.534;2024-01-30T06:06:54;1;1;
56688;PMS5003;42565;53.342;-1.534;2024-01-30T06:09:21;1;1;
56688;PMS5003;42565;53.342;-1.534;2024-01-30T06:11:48;1;1;
56688;PMS5003;42565;53.342;-1.534;2024-01-30T06:14:14;0;0;
56688;PMS5003;42565;53.342;-1.534;2024-01-30T06:16:41;1;1;
56688;PMS5003;42565;53.342;-1.534;2024-01-30T06:19:08;1;1;
56688;PMS5003;42565;53.342;-1.534;2024-01-30T06:21:35;0;0;
56688;PMS5003;42565;53.342;-1.534;2024-01-30T06:24:01;1;0;
56688;PMS5003;42565;53.342;-1.534;2024-01-30T06:26:29;0;0;
56688;PMS5003;42565;53.342;-1.534;2024-01-30T06:28:55;1;1;
56688;PMS5003;42565;53.342;-1.534;2024-01-30T06:31:23;1;1;
56688;PMS5003;42565;53.342;-1.534;2024-01-30T06:33:50;1;1;
56688;PMS5003;42565;53.342;-1.534;2024-01-30T06:36:16;0;0;
56688;PMS5003;42565;53.342;-1.534;2024-01-30T06:38:43;1;1;
56688;PMS5003;42565;53.342;-1.534;2024-01-30T06:41:10;0;0;
56688;PMS5003;42565;53.342;-1.534;2024-01-30T06:43:36;0;0;
56688;PMS5003;42565;53.342;-1.534;2024-01-30T06:46:03;0;0;
56688;PMS5003;42565;53.342;-1.534;2024-01-30T06:48:31;0;0;
56688;PMS5003;42565;53.342;-1.534;2024-01-30T06:50:57;0;0;
56688;PMS5003;42565;53.342;-1.534;2024-01-30T06:53:24;0;0;
56688;PMS5003;42565;53.342;-1.534;2024-01-30T06:55:51;0;0;
56688;PMS5003;42565;53.342;-1.534;2024-01-30T06:58:18;0;0;
56688;PMS5003;42565;53.342;-1.534;2024-01-30T07:00:45;0;0;
56688;PMS5003;42565;53.342;-1.534;2024-01-30T07:03:12;0;0;
56688;PMS5003;42565;53.342;-1.534;2024-01-30T07:05:39;0;0;
56688;PMS5003;42565;53.342;-1.534;2024-01-30T07:08:06;0;0;
56688;PMS5003;42565;53.342;-1.534;2024-01-30T07:10:33;0;0;
56688;PMS5003;42565;53.342;-1.534;2024-01-30T07:13:01;0;0;
56688;PMS5003;42565;53.342;-1.534;2024-01-30T07:15:28;0;0;
56688;PMS5003;42565;53.342;-1.534;2024-01-30T07:17:56;0;0;
56688;PMS5003;42565;53.342;-1.534;2024-01-30T07:20:23;0;0;
56688;PMS5003;42565;53.342;-1.534;2024-01-30T07:22:51;0;0;
56688;PMS5003;42565;53.342;-1.534;2024-01-30T07:25:18;0;0;
56688;PMS5003;42565;53.342;-1.534;2024-01-30T07:27:45;0;0;
56688;PMS5003;42565;53.342;-1.534;2024-01-30T07:30:12;0;0;
56688;PMS5003;42565;53.342;-1.534;2024-01-30T07:32:39;0;0;
56688;PMS5003;42565;53.342;-1.534;2024-01-30T07:35:06;0;0;
56688;PMS5003;42565;53.342;-1.534;2024-01-30T07:37:34;0;0;
56688;PMS5003;42565;53.342;-1.534;2024-01-30T07:40:01;0;0;
56688;PMS5003;42565;53.342;-1.534;2024-01-30T07:42:29;0;0;
56688;PMS5003;42565;53.342;-1.534;2024-01-30T07:44:56;0;0;
56688;PMS5003;42565;53.342;-1.534;2024-01-30T07:47:24;0;0;
56688;PMS5003;42565;53.342;-1.534;2024-01-30T07:49:51;0;0;
56688;PMS5003;42565;53.342;-1.534;2024-01-30T07:52:19;0;0;
56688;PMS5003;42565;53.342;-1.534;2024-01-30T07:54:46;0;0;
56688;PMS5003;42565;53.342;-1.534;2024-01-30T07:57:12;0;0;
56688;PMS5003;42565;53.342;-1.534;2024-01-30T07:59:39;0;0;
56688;PMS5003;42565;53.342;-1.534;2024-01-30T08:02:13;0;0;
56688;PMS5003;42565;53.342;-1.534;2024-01-30T08:04:40;0;0;
56688;PMS5003;42565;53.342;-1.534;2024-01-30T08:07:08;0;0;
56688;PMS5003;42565;53.342;-1.534;2024-01-30T08:09:35;0;0;
56688;PMS5003;42565;53.342;-1.534;2024-01-30T08:12:02;0;0;
56688;PMS5003;42565;53.342;-1.534;2024-01-30T08:14:30;1;1;
56688;PMS5003;42565;53.342;-1.534;2024-01-30T08:16:57;0;0;
56688;PMS5003;42565;53.342;-1.534;2024-01-30T08:19:24;0;0;
56688;PMS5003;42565;53.342;-1.534;2024-01-30T08:21:50;0;0;
56688;PMS5003;42565;53.342;-1.534;2024-01-30T08:24:17;0;0;
56688;PMS5003;42565;53.342;-1.534;2024-01-30T08:26:44;0;0;
56688;PMS5003;42565;53.342;-1.534;2024-01-30T08:29:11;1;1;
56688;PMS5003;42565;53.342;-1.534;2024-01-30T08:31:39;0;0;
56688;PMS5003;42565;53.342;-1.534;2024-01-30T08:34:05;1;1;
56688;PMS5003;42565;53.342;-1.534;2024-01-30T08:36:32;0;0;
56688;PMS5003;42565;53.342;-1.534;2024-01-30T08:38:59;0;0;
56688;PMS5003;42565;53.342;-1.534;2024-01-30T08:41:25;0;0;
56688;PMS5003;42565;53.342;-1.534;2024-01-30T08:43:52;0;0;
56688;PMS5003;42565;53.342;-1.534;2024-01-30T08:46:19;0;0;
56688;PMS5003;42565;53.342;-1.534;2024-01-30T08:48:46;0;0;
56688;PMS5003;42565;53.342;-1.534;2024-01-30T08:51:13;0;0;
56688;PMS5003;42565;53.342;-1.534;2024-01-30T08:53:40;0;0;
56688;PMS5003;42565;53.342;-1.534;2024-01-30T08:56:06;0;0;
56688;PMS5003;42565;53.342;-1.534;2024-01-30T08:58:34;0;0;
56688;PMS5003;42565;53.342;-1.534;2024-01-30T09:01:02;0;0;
56688;PMS5003;42565;53.342;-1.534;2024-01-30T09:03:29;0;0;
56688;PMS5003;42565;53.342;-1.534;2024-01-30T09:05:56;0;0;
56688;PMS5003;42565;53.342;-1.534;2024-01-30T09:08:22;0;0;
56688;PMS5003;42565;53.342;-1.534;2024-01-30T09:10:49;0;0;
56688;PMS5003;42565;53.342;-1.534;2024-01-30T09:13:17;0;0;
56688;PMS5003;42565;53.342;-1.534;2024-01-30T09:15:43;0;0;
56688;PMS5003;42565;53.342;-1.534;2024-01-30T09:18:10;0;0;
56688;PMS5003;42565;53.342;-1.534;2024-01-30T09:20:37;0;0;
56688;PMS5003;42565;53.342;-1.534;2024-01-30T09:23:03;0;0;
56688;PMS5003;42565;53.342;-1.534;2024-01-30T09:25:31;0;0;
56688;PMS5003;42565;53.342;-1.534;2024-01-30T09:27:58;0;0;
56688;PMS5003;42565;53.342;-1.534;2024-01-30T09:30:25;0;0;
56688;PMS5003;42565;53.342;-1.534;2024-01-30T09:32:52;0;0;
56688;PMS5003;42565;53.342;-1.534;2024-01-30T09:35:18;0;0;
56688;PMS5003;42565;53.342;-1.534;2024-01-30T09:37:45;0;0;
56688;PMS5003;42565;53.342;-1.534;2024-01-30T09:40:12;0;0;
56688;PMS5003;42565;53.342;-1.534;2024-01-30T09:42:39;0;0;
56688;PMS5003;42565;53.342;-1.534;2024-01-30T09:45:09;0;0;
56688;PMS5003;42565;53.342;-1.534;2024-01-30T09:47:40;0;0;
56688;PMS5003;42565;53.342;-1.534;2024-01-30T09:50:09;0;0;
56688;PMS5003;42565;53.342;-1.534;2024-01-30T09:52:37;0;0;
56688;PMS5003;42565;53.342;-1.534;2024-01-30T09:55:05;0;0;
56688;PMS5003;42565;53.342;-1.534;2024-01-30T09:57:34;0;0;
56688;PMS5003;42565;53.342;-1.534;2024-01-30T10:00:03;0;0;
56688;PMS5003;42565;53.342;-1.534;2024-01-30T10:02:31;0;0;
56688;PMS5003;42565;53.342;-1.534;2024-01-30T10:04:58;0;0;
56688;PMS5003;42565;53.342;-1.534;2024-01-30T10:07:26;0;0;
56688;PMS5003;42565;53.342;-1.534;2024-01-30T10:09:54;0;0;
56688;PMS5003;42565;53.342;-1.534;2024-01-30T10:12:21;0;0;
56688;PMS5003;42565;53.342;-1.534;2024-01-30T10:14:49;0;0;
56688;PMS5003;42565;53.342;-1.534;2024-01-30T10:17:16;0;0;
56688;PMS5003;42565;53.342;-1.534;2024-01-30T10:19:43;0;0;
56688;PMS5003;42565;53.342;-1.534;2024-01-30T10:22:10;0;0;
56688;PMS5003;42565;53.342;-1.534;2024-01-30T10:24:37;0;0;
56688;PMS5003;42565;53.342;-1.534;2024-01-30T10:27:05;0;0;
56688;PMS5003;42565;53.342;-1.534;2024-01-30T10:29:32;0;0;
56688;PMS5003;42565;53.342;-1.534;2024-01-30T10:31:59;0;0;
56688;PMS5003;42565;53.342;-1.534;2024-01-30T10:34:26;0;0;
56688;PMS5003;42565;53.342;-1.534;2024-01-30T10:36:58;0;0;
56688;PMS5003;42565;53.342;-1.534;2024-01-30T10:39:27;0;0;
56688;PMS5003;42565;53.342;-1.534;2024-01-30T10:41:56;0;0;
56688;PMS5003;42565;53.342;-1.534;2024-01-30T10:44:30;0;0;
56688;PMS5003;42565;53.342;-1.534;2024-01-30T10:47:03;0;0;
56688;PMS5003;42565;53.342;-1.534;2024-01-30T10:49:38;0;0;
56688;PMS5003;42565;53.342;-1.534;2024-01-30T10:52:07;0;0;
56688;PMS5003;42565;53.342;-1.534;2024-01-30T10:54:35;0;0;
56688;PMS5003;42565;53.342;-1.534;2024-01-30T10:57:04;0;0;
56688;PMS5003;42565;53.342;-1.534;2024-01-30T10:59:32;0;0;
56688;PMS5003;42565;53.342;-1.534;2024-01-30T11:02:00;0;0;
56688;PMS5003;42565;53.342;-1.534;2024-01-30T11:04:35;0;0;
56688;PMS5003;42565;53.342;-1.534;2024-01-30T11:07:03;0;0;
56688;PMS5003;42565;53.342;-1.534;2024-01-30T11:09:40;0;0;
56688;PMS5003;42565;53.342;-1.534;2024-01-30T11:12:11;0;0;
56688;PMS5003;42565;53.342;-1.534;2024-01-30T11:14:39;0;0;
56688;PMS5003;42565;53.342;-1.534;2024-01-30T11:17:07;0;0;
56688;PMS5003;42565;53.342;-1.534;2024-01-30T11:19:37;0;0;
56688;PMS5003;42565;53.342;-1.534;2024-01-30T11:22:03;0;0;
56688;PMS5003;42565;53.342;-1.534;2024-01-30T11:24:38;0;0;
56688;PMS5003;42565;53.342;-1.534;2024-01-30T11:27:08;0;0;
56688;PMS5003;42565;53.342;-1.534;2024-01-30T11:29:35;0;0;
56688;PMS5003;42565;53.342;-1.534;2024-01-30T11:32:03;0;0;
56688;PMS5003;42565;53.342;-1.534;2024-01-30T11:34:32;0;0;
56688;PMS5003;42565;53.342;-1.534;2024-01-30T11:37:01;0;0;
56688;PMS5003;42565;53.342;-1.534;2024-01-30T11:39:32;1;1;
56688;PMS5003;42565;53.342;-1.534;2024-01-30T11:41:59;0;0;
56688;PMS5003;42565;53.342;-1.534;2024-01-30T11:44:27;0;0;
56688;PMS5003;42565;53.342;-1.534;2024-01-30T11:46:54;0;0;
56688;PMS5003;42565;53.342;-1.534;2024-01-30T11:49:22;0;0;
56688;PMS5003;42565;53.342;-1.534;2024-01-30T11:51:50;1;0;
56688;PMS5003;42565;53.342;-1.534;2024-01-30T11:54:18;0;0;
56688;PMS5003;42565;53.342;-1.534;2024-01-30T11:56:46;0;0;
56688;PMS5003;42565;53.342;-1.534;2024-01-30T11:59:13;1;0;
56688;PMS5003;42565;53.342;-1.534;2024-01-30T12:01:40;0;0;
56688;PMS5003;42565;53.342;-1.534;2024-01-30T12:04:08;0;0;
56688;PMS5003;42565;53.342;-1.534;2024-01-30T12:06:35;0;0;
56688;PMS5003;42565;53.342;-1.534;2024-01-30T12:09:03;0;0;
56688;PMS5003;42565;53.342;-1.534;2024-01-30T12:11:30;0;0;
56688;PMS5003;42565;53.342;-1.534;2024-01-30T12:13:58;0;0;
56688;PMS5003;42565;53.342;-1.534;2024-01-30T12:16:25;0;0;
56688;PMS5003;42565;53.342;-1.534;2024-01-30T12:18:59;0;0;
56688;PMS5003;42565;53.342;-1.534;2024-01-30T12:21:26;0;0;
56688;PMS5003;42565;53.342;-1.534;2024-01-30T12:23:54;0;0;
56688;PMS5003;42565;53.342;-1.534;2024-01-30T12:26:21;1;1;
56688;PMS5003;42565;53.342;-1.534;2024-01-30T12:28:48;0;0;
56688;PMS5003;42565;53.342;-1.534;2024-01-30T12:31:16;1;1;
56688;PMS5003;42565;53.342;-1.534;2024-01-30T12:33:43;2;2;
56688;PMS5003;42565;53.342;-1.534;2024-01-30T12:36:11;1;1;
56688;PMS5003;42565;53.342;-1.534;2024-01-30T12:38:38;1;0;
56688;PMS5003;42565;53.342;-1.534;2024-01-30T12:41:07;0;0;
56688;PMS5003;42565;53.342;-1.534;2024-01-30T12:43:33;1;1;
56688;PMS5003;42565;53.342;-1.534;2024-01-30T12:46:01;1;1;
56688;PMS5003;42565;53.342;-1.534;2024-01-30T12:48:29;1;1;
56688;PMS5003;42565;53.342;-1.534;2024-01-30T12:50:56;2;1;
56688;PMS5003;42565;53.342;-1.534;2024-01-30T12:53:23;1;1;
56688;PMS5003;42565;53.342;-1.534;2024-01-30T12:55:51;1;1;
56688;PMS5003;42565;53.342;-1.534;2024-01-30T12:58:18;1;1;
56688;PMS5003;42565;53.342;-1.534;2024-01-30T13:00:44;0;0;
56688;PMS5003;42565;53.342;-1.534;2024-01-30T13:03:12;1;1;
56688;PMS5003;42565;53.342;-1.534;2024-01-30T13:05:39;0;0;
56688;PMS5003;42565;53.342;-1.534;2024-01-30T13:08:06;0;0;
56688;PMS5003;42565;53.342;-1.534;2024-01-30T13:10:34;1;1;
56688;PMS5003;42565;53.342;-1.534;2024-01-30T13:13:00;1;1;
56688;PMS5003;42565;53.342;-1.534;2024-01-30T13:15:28;1;1;
56688;PMS5003;42565;53.342;-1.534;2024-01-30T13:17:54;1;1;
56688;PMS5003;42565;53.342;-1.534;2024-01-30T13:20:21;1;1;
56688;PMS5003;42565;53.342;-1.534;2024-01-30T13:22:48;1;1;
56688;PMS5003;42565;53.342;-1.534;2024-01-30T13:25:15;1;1;
56688;PMS5003;42565;53.342;-1.534;2024-01-30T13:27:42;2;2;
56688;PMS5003;42565;53.342;-1.534;2024-01-30T13:30:10;1;1;
56688;PMS5003;42565;53.342;-1.534;2024-01-30T13:32:37;2;2;
56688;PMS5003;42565;53.342;-1.534;2024-01-30T13:35:04;2;2;
56688;PMS5003;42565;53.342;-1.534;2024-01-30T13:37:31;1;1;
56688;PMS5003;42565;53.342;-1.534;2024-01-30T13:39:59;1;1;
56688;PMS5003;42565;53.342;-1.534;2024-01-30T13:42:25;1;1;
56688;PMS5003;42565;53.342;-1.534;2024-01-30T13:44:52;1;1;
56688;PMS5003;42565;53.342;-1.534;2024-01-30T13:47:19;1;1;
56688;PMS5003;42565;53.342;-1.534;2024-01-30T13:49:46;2;2;
56688;PMS5003;42565;53.342;-1.534;2024-01-30T13:52:14;2;2;
56688;PMS5003;42565;53.342;-1.534;2024-01-30T13:54:41;2;1;
56688;PMS5003;42565;53.342;-1.534;2024-01-30T13:57:08;0;0;
56688;PMS5003;42565;53.342;-1.534;2024-01-30T13:59:37;1;1;
56688;PMS5003;42565;53.342;-1.534;2024-01-30T14:02:04;1;1;
56688;PMS5003;42565;53.342;-1.534;2024-01-30T14:04:31;0;0;
56688;PMS5003;42565;53.342;-1.534;2024-01-30T14:06:58;1;1;
56688;PMS5003;42565;53.342;-1.534;2024-01-30T14:09:26;1;1;
56688;PMS5003;42565;53.342;-1.534;2024-01-30T14:11:53;0;0;
56688;PMS5003;42565;53.342;-1.534;2024-01-30T14:14:21;0;0;
56688;PMS5003;42565;53.342;-1.534;2024-01-30T14:16:47;0;0;
56688;PMS5003;42565;53.342;-1.534;2024-01-30T14:19:14;1;1;
56688;PMS5003;42565;53.342;-1.534;2024-01-30T14:21:42;1;1;
56688;PMS5003;42565;53.342;-1.534;2024-01-30T14:24:14;2;1;
56688;PMS5003;42565;53.342;-1.534;2024-01-30T14:26:41;0;0;
56688;PMS5003;42565;53.342;-1.534;2024-01-30T14:29:08;1;1;
56688;PMS5003;42565;53.342;-1.534;2024-01-30T14:31:35;1;1;
56688;PMS5003;42565;53.342;-1.534;2024-01-30T14:34:02;1;1;
56688;PMS5003;42565;53.342;-1.534;2024-01-30T14:36:29;1;1;
56688;PMS5003;42565;53.342;-1.534;2024-01-30T14:38:57;1;1;
56688;PMS5003;42565;53.342;-1.534;2024-01-30T14:41:24;1;1;
56688;PMS5003;42565;53.342;-1.534;2024-01-30T14:43:51;1;1;
56688;PMS5003;42565;53.342;-1.534;2024-01-30T14:46:19;2;2;
56688;PMS5003;42565;53.342;-1.534;2024-01-30T14:48:46;1;1;
56688;PMS5003;42565;53.342;-1.534;2024-01-30T14:51:14;1;1;
56688;PMS5003;42565;53.342;-1.534;2024-01-30T14:53:41;1;1;
56688;PMS5003;42565;53.342;-1.534;2024-01-30T14:56:09;0;0;
56688;PMS5003;42565;53.342;-1.534;2024-01-30T14:58:37;1;1;
56688;PMS5003;42565;53.342;-1.534;2024-01-30T15:01:05;0;0;
56688;PMS5003;42565;53.342;-1.534;2024-01-30T15:03:32;0;0;
56688;PMS5003;42565;53.342;-1.534;2024-01-30T15:06:00;0;0;
56688;PMS5003;42565;53.342;-1.534;2024-01-30T15:08:27;1;0;
56688;PMS5003;42565;53.342;-1.534;2024-01-30T15:10:55;0;0;
56688;PMS5003;42565;53.342;-1.534;2024-01-30T15:13:21;1;1;
56688;PMS5003;42565;53.342;-1.534;2024-01-30T15:15:48;1;1;
56688;PMS5003;42565;53.342;-1.534;2024-01-30T15:18:15;2;1;
56688;PMS5003;42565;53.342;-1.534;2024-01-30T15:20:41;1;1;
56688;PMS5003;42565;53.342;-1.534;2024-01-30T15:23:08;0;0;
56688;PMS5003;42565;53.342;-1.534;2024-01-30T15:25:35;1;0;
56688;PMS5003;42565;53.342;-1.534;2024-01-30T15:28:02;0;0;
56688;PMS5003;42565;53.342;-1.534;2024-01-30T15:30:29;1;0;
56688;PMS5003;42565;53.342;-1.534;2024-01-30T15:32:56;0;0;
56688;PMS5003;42565;53.342;-1.534;2024-01-30T15:35:22;1;0;
56688;PMS5003;42565;53.342;-1.534;2024-01-30T15:37:49;1;0;
56688;PMS5003;42565;53.342;-1.534;2024-01-30T15:40:17;1;1;
56688;PMS5003;42565;53.342;-1.534;2024-01-30T15:42:44;1;1;
56688;PMS5003;42565;53.342;-1.534;2024-01-30T15:45:11;1;1;
56688;PMS5003;42565;53.342;-1.534;2024-01-30T15:47:38;1;1;
56688;PMS5003;42565;53.342;-1.534;2024-01-30T15:50:05;1;1;
56688;PMS5003;42565;53.342;-1.534;2024-01-30T15:52:33;1;1;
56688;PMS5003;42565;53.342;-1.534;2024-01-30T15:54:59;1;1;
56688;PMS5003;42565;53.342;-1.534;2024-01-30T15:57:27;0;0;
56688;PMS5003;42565;53.342;-1.534;2024-01-30T15:59:54;1;1;
56688;PMS5003;42565;53.342;-1.534;2024-01-30T16:02:20;0;0;
56688;PMS5003;42565;53.342;-1.534;2024-01-30T16:04:47;1;1;
56688;PMS5003;42565;53.342;-1.534;2024-01-30T16:07:14;1;1;
56688;PMS5003;42565;53.342;-1.534;2024-01-30T16:09:41;1;1;
56688;PMS5003;42565;53.342;-1.534;2024-01-30T16:12:09;1;1;
56688;PMS5003;42565;53.342;-1.534;2024-01-30T16:14:36;2;2;
56688;PMS5003;42565;53.342;-1.534;2024-01-30T16:17:03;1;1;
56688;PMS5003;42565;53.342;-1.534;2024-01-30T16:19:31;1;1;
56688;PMS5003;42565;53.342;-1.534;2024-01-30T16:21:58;1;1;
56688;PMS5003;42565;53.342;-1.534;2024-01-30T16:24:25;0;0;
56688;PMS5003;42565;53.342;-1.534;2024-01-30T16:26:52;2;1;
56688;PMS5003;42565;53.342;-1.534;2024-01-30T16:29:18;1;0;